createdAt,value
2022-11-03T05:43:00.088Z,5.38
2022-11-03T05:48:37.350Z,5.40
2022-11-03T05:54:02.368Z,5.32
2022-11-03T05:59:25.747Z,5.31
2022-11-03T06:04:46.631Z,5.21
2022-11-03T06:10:31.478Z,5.17
2022-11-03T06:16:02.517Z,5.10
2022-11-03T06:21:25.567Z,5.07
2022-11-03T06:26:47.882Z,5.05
2022-11-03T06:32:13.352Z,5.20
2022-11-03T06:37:34.843Z,5.28
2022-11-03T06:42:58.498Z,5.15
2022-11-03T06:48:24.585Z,5.35
2022-11-03T06:53:46.000Z,5.43
2022-11-03T06:59:10.742Z,5.58
2022-11-03T07:04:31.892Z,5.81
2022-11-03T07:09:54.647Z,6.18
2022-11-03T07:15:30.268Z,6.55
2022-11-03T07:20:53.626Z,6.86
2022-11-03T07:26:14.509Z,7.16
2022-11-03T07:31:35.404Z,7.24
2022-11-03T07:36:57.724Z,7.22
2022-11-03T07:42:21.921Z,7.34
2022-11-03T07:47:45.406Z,7.90
2022-11-03T07:53:36.223Z,8.42
2022-11-03T07:59:05.525Z,8.83
2022-11-03T08:04:34.284Z,9.39
2022-11-03T08:09:55.644Z,9.79
2022-11-03T08:15:16.792Z,10.04
2022-11-03T08:20:37.547Z,10.26
2022-11-03T08:25:58.532Z,10.64
2022-11-03T08:31:19.325Z,11.08
2022-11-03T08:36:40.280Z,11.84
2022-11-03T08:42:01.158Z,13.87
2022-11-03T08:47:22.098Z,15.93
2022-11-03T08:52:42.870Z,16.43
2022-11-03T08:58:04.024Z,14.94
2022-11-03T09:03:25.393Z,15.54
2022-11-03T09:14:27.104Z,16.20
2022-11-03T09:19:47.912Z,14.81
2022-11-03T09:25:09.095Z,13.93
2022-11-03T09:30:30.151Z,13.72
2022-11-03T09:35:50.850Z,13.51
2022-11-03T09:41:26.255Z,13.73
2022-11-03T09:46:53.776Z,13.63
2022-11-03T09:52:21.550Z,13.76
2022-11-03T09:57:42.718Z,13.70
2022-11-03T10:03:03.928Z,13.84
2022-11-03T10:08:31.807Z,13.95
2022-11-03T10:13:56.310Z,14.13
2022-11-03T10:19:18.214Z,14.37
2022-11-03T10:24:39.558Z,14.44
2022-11-03T10:30:10.477Z,14.24
2022-11-03T10:35:35.271Z,14.48
2022-11-03T10:41:25.946Z,14.47
2022-11-03T10:47:05.796Z,14.86
2022-11-03T10:52:30.028Z,15.02
2022-11-03T10:57:53.200Z,15.07
2022-11-03T11:03:16.599Z,14.96
2022-11-03T11:08:40.660Z,14.91
2022-11-03T11:14:22.544Z,14.92
2022-11-03T11:20:22.450Z,14.90
2022-11-03T11:26:24.593Z,15.02
2022-11-03T11:31:45.961Z,15.14
2022-11-03T11:37:07.650Z,15.10
2022-11-03T11:42:30.435Z,14.94
2022-11-03T11:47:53.937Z,14.72
2022-11-03T11:53:23.184Z,14.66
2022-11-03T11:58:49.999Z,14.48
2022-11-03T12:04:28.088Z,14.48
2022-11-03T12:09:49.465Z,14.39
2022-11-03T12:15:47.993Z,14.33
2022-11-03T12:21:33.251Z,14.06
2022-11-03T12:26:54.111Z,13.92
2022-11-03T12:32:32.300Z,13.77
2022-11-03T12:37:55.110Z,13.72
2022-11-03T12:43:15.762Z,13.66
2022-11-03T12:48:36.890Z,13.65
2022-11-03T12:53:57.445Z,13.60
2022-11-03T12:59:18.078Z,13.44
2022-11-03T13:04:39.153Z,13.39
2022-11-03T13:10:00.220Z,13.29
2022-11-03T13:15:21.092Z,13.26
2022-11-03T13:20:44.929Z,13.27
2022-11-03T13:26:05.918Z,13.21
2022-11-03T13:31:27.131Z,13.20
2022-11-03T13:36:48.003Z,13.09
2022-11-03T13:42:09.027Z,13.02
2022-11-03T13:47:42.044Z,13.00
2022-11-03T14:10:03.855Z,12.94
2022-11-03T14:15:24.944Z,12.81
2022-11-03T14:20:46.002Z,12.70
2022-11-03T14:26:22.496Z,12.59
2022-11-03T14:31:47.645Z,12.43
2022-11-03T14:37:09.105Z,12.36
2022-11-03T14:42:29.951Z,12.24
2022-11-03T14:47:50.763Z,12.17
2022-11-03T14:53:11.484Z,12.06
2022-11-03T14:58:32.193Z,11.96
2022-11-03T15:03:53.122Z,11.85
2022-11-03T15:09:14.862Z,11.74
2022-11-03T15:14:35.808Z,11.64
2022-11-03T15:19:56.637Z,11.51
2022-11-03T15:25:21.541Z,11.42
2022-11-03T15:30:48.582Z,11.31
2022-11-03T15:36:09.902Z,11.22
2022-11-03T15:41:30.867Z,11.23
2022-11-03T15:46:51.850Z,11.21
2022-11-03T15:52:13.130Z,11.17
2022-11-03T15:57:33.859Z,11.09
2022-11-03T16:02:54.849Z,10.94
2022-11-03T16:08:15.707Z,10.85
2022-11-03T16:13:36.398Z,10.75
2022-11-03T16:18:57.528Z,10.70
2022-11-03T16:24:18.534Z,10.63
2022-11-03T16:29:39.303Z,10.55
2022-11-03T16:35:00.051Z,10.49
2022-11-03T16:40:20.961Z,10.41
2022-11-03T16:45:41.667Z,10.34
2022-11-03T16:51:02.529Z,10.33
2022-11-03T16:56:24.018Z,10.22
2022-11-03T17:01:45.216Z,10.26
2022-11-03T17:07:05.911Z,10.27
2022-11-03T17:12:27.216Z,10.28
2022-11-03T17:17:48.016Z,10.31
2022-11-03T17:23:08.731Z,10.34
2022-11-03T17:28:29.780Z,10.36
2022-11-03T17:33:50.793Z,10.35
2022-11-03T17:39:15.685Z,10.35
2022-11-03T17:44:37.016Z,10.26
2022-11-03T17:49:58.040Z,10.26
2022-11-03T17:55:33.159Z,10.23
2022-11-03T18:00:54.134Z,10.22
2022-11-03T18:06:19.803Z,10.22
2022-11-03T18:12:00.955Z,10.21
2022-11-03T18:17:21.814Z,10.22
2022-11-03T18:22:42.704Z,10.23
2022-11-03T18:28:03.713Z,10.21
2022-11-03T18:33:34.345Z,10.21
2022-11-03T18:38:57.015Z,10.15
2022-11-03T18:44:18.196Z,10.08
2022-11-03T18:49:38.854Z,10.09
2022-11-03T18:54:59.658Z,10.01
2022-11-03T19:00:22.986Z,9.94
2022-11-03T19:05:45.512Z,9.90
2022-11-03T19:11:06.718Z,9.91
2022-11-03T19:16:27.631Z,9.90
2022-11-03T19:21:48.555Z,9.92
2022-11-03T19:27:20.476Z,9.88
2022-11-03T19:32:45.913Z,9.85
2022-11-03T19:38:14.419Z,9.81
2022-11-03T19:43:35.549Z,9.76
2022-11-03T19:48:57.069Z,9.78
2022-11-03T19:54:21.310Z,9.79
2022-11-03T19:59:43.948Z,9.81
2022-11-03T20:05:05.001Z,9.79
2022-11-03T20:10:25.492Z,9.79
2022-11-03T20:15:46.846Z,9.79
2022-11-03T20:21:14.365Z,9.72
2022-11-03T20:26:35.960Z,9.68
2022-11-03T20:31:56.792Z,9.65
2022-11-03T20:37:19.597Z,9.57
2022-11-03T20:42:40.741Z,9.46
2022-11-03T20:48:02.245Z,9.43
2022-11-03T20:53:25.636Z,9.39
2022-11-03T20:58:49.102Z,9.31
2022-11-03T21:04:15.537Z,9.21
2022-11-03T21:09:36.531Z,9.20
2022-11-03T21:15:15.777Z,9.15
2022-11-03T21:20:36.686Z,9.11
2022-11-03T21:25:57.794Z,9.08
2022-11-03T21:31:18.795Z,9.04
2022-11-03T21:36:39.663Z,8.99
2022-11-03T21:42:18.978Z,8.96
2022-11-03T21:47:59.720Z,8.93
2022-11-03T21:53:20.971Z,8.90
2022-11-03T21:58:42.579Z,8.89
2022-11-03T22:04:03.921Z,8.83
2022-11-03T22:09:26.867Z,8.79
2022-11-03T22:15:06.197Z,8.74
2022-11-03T22:20:45.568Z,8.70
